Time;durP1;ratioP1;P1;durP2;ratioP2;P2;SDS_P1;SDS_P2;PMS_P1;PMS_P2;Temp;Humidity;BMP_temperature;BMP_pressure;BME280_temperature;BME280_humidity;BME280_pressure;Samples;Min_cycle;Max_cycle;Signal;HPM_P1;HPM_P2
2023/11/01 00:02:23;;;;;;;0.00;0.00;;;;;;;12.24;59.85;99266.81;5308960;26;20029;-93
2023/11/01 00:04:48;;;;;;;1.02;0.47;;;;;;;12.31;59.86;99264.78;5309281;26;20070;-94
2023/11/01 00:07:15;;;;;;;0.10;0.10;;;;;;;12.07;59.84;99260.69;5308507;26;22668;-93
2023/11/01 00:09:40;;;;;;;0.47;0.20;;;;;;;12.16;59.85;99266.31;5327292;26;20079;-92
2023/11/01 00:12:06;;;;;;;0.00;0.00;;;;;;;12.24;59.85;99266.81;5307796;26;27648;-93
2023/11/01 00:14:31;;;;;;;0.40;0.20;;;;;;;12.18;59.85;99261.03;5308994;26;20424;-94
2023/11/01 00:16:56;;;;;;;0.60;0.60;;;;;;;11.97;59.84;99262.88;5309077;26;20072;-94
2023/11/01 00:19:23;;;;;;;0.00;0.00;;;;;;;12.06;59.85;99269.41;5309085;26;20103;-94
2023/11/01 00:21:48;;;;;;;0.32;0.32;;;;;;;12.19;59.84;99270.56;5309426;26;20079;-94
2023/11/01 00:24:14;;;;;;;0.00;0.00;;;;;;;12.13;59.84;99270.84;5308960;26;20057;-94
2023/11/01 00:26:39;;;;;;;0.00;0.00;;;;;;;12.17;59.85;99273.25;5324518;26;20048;-95
2023/11/01 00:29:05;;;;;;;0.10;0.10;;;;;;;12.09;59.84;99279.72;5311663;26;20077;-94
2023/11/01 00:31:30;;;;;;;0.28;0.20;;;;;;;12.21;59.84;99279.16;5308568;26;20056;-94
2023/11/01 00:33:55;;;;;;;0.00;0.00;;;;;;;12.04;59.84;99276.47;5308386;26;20092;-94
2023/11/01 00:36:21;;;;;;;0.88;0.37;;;;;;;12.10;59.84;99282.28;5308699;26;20079;-93
2023/11/01 00:38:46;;;;;;;0.00;0.00;;;;;;;12.21;59.86;99276.53;5308795;26;20080;-95
2023/11/01 00:41:12;;;;;;;0.00;0.00;;;;;;;12.09;59.85;99275.38;5308859;26;20056;-94
2023/11/01 00:43:37;;;;;;;0.05;0.03;;;;;;;12.17;59.85;99282.81;5307900;26;20991;-95
2023/11/01 00:46:03;;;;;;;1.55;1.45;;;;;;;12.09;59.84;99290.16;5308529;26;20314;-93
2023/11/01 00:48:28;;;;;;;0.03;0.03;;;;;;;12.16;59.85;99281.97;5308230;26;20060;-92
2023/11/01 00:50:54;;;;;;;0.37;0.25;;;;;;;12.05;59.84;99278.16;5308535;26;20415;-92
2023/11/01 00:53:20;;;;;;;0.10;0.10;;;;;;;11.99;59.84;99282.75;5308395;26;20421;-91
2023/11/01 00:55:45;;;;;;;0.10;0.10;;;;;;;11.90;59.83;99279.72;5308137;26;20051;-92
2023/11/01 00:58:11;;;;;;;0.00;0.00;;;;;;;11.94;59.83;99287.31;5307895;26;20114;-95
2023/11/01 01:00:36;;;;;;;0.00;0.00;;;;;;;11.94;59.83;99302.97;5308282;26;20115;-93
2023/11/01 01:03:02;;;;;;;0.22;0.05;;;;;;;11.95;59.84;99302.06;5307642;26;27467;-92
2023/11/01 01:05:27;;;;;;;0.00;0.00;;;;;;;12.07;59.85;99315.47;5308253;26;20336;-91
2023/11/01 01:07:52;;;;;;;0.00;0.00;;;;;;;11.83;59.83;99314.78;5308262;26;20108;-91
2023/11/01 01:10:18;;;;;;;0.17;0.17;;;;;;;12.05;59.84;99309.47;5308370;26;20060;-92
2023/11/01 01:12:43;;;;;;;0.00;0.00;;;;;;;11.94;59.83;99317.78;5307916;26;20143;-92
2023/11/01 01:15:09;;;;;;;5.47;0.45;;;;;;;12.14;59.85;99309.06;5308266;26;20047;-93
2023/11/01 01:17:35;;;;;;;0.08;0.00;;;;;;;11.92;59.84;99311.78;5326302;26;20097;-94
2023/11/01 01:20:00;;;;;;;0.00;0.00;;;;;;;11.92;59.84;99314.41;5308076;26;20129;-93
2023/11/01 01:22:25;;;;;;;0.00;0.00;;;;;;;12.02;59.84;99310.44;5307703;26;24447;-92
2023/11/01 01:24:51;;;;;;;0.28;0.25;;;;;;;12.14;59.85;99319.50;5308951;26;20079;-93
2023/11/01 01:27:18;;;;;;;0.10;0.10;;;;;;;12.13;59.84;99326.47;5308607;26;20398;-92
2023/11/01 01:29:43;;;;;;;0.00;0.00;;;;;;;11.97;59.83;99330.69;5309365;26;20127;-92
2023/11/01 01:32:08;;;;;;;0.00;0.00;;;;;;;12.00;59.84;99330.53;5327609;26;20090;-94
2023/11/01 01:34:34;;;;;;;0.00;0.00;;;;;;;12.12;59.84;99342.22;5308998;26;20047;-92
2023/11/01 01:36:59;;;;;;;0.00;0.00;;;;;;;11.98;59.84;99341.03;5309131;26;20120;-93
2023/11/01 01:39:25;;;;;;;0.40;0.13;;;;;;;12.04;59.84;99332.09;5309224;26;20099;-92
2023/11/01 01:41:53;;;;;;;0.30;0.30;;;;;;;12.02;59.84;99333.06;5308332;26;26724;-92
2023/11/01 01:44:18;;;;;;;0.00;0.00;;;;;;;12.15;59.85;99327.25;5328232;26;20021;-92
2023/11/01 01:46:44;;;;;;;0.00;0.00;;;;;;;12.02;59.84;99341.75;5308553;26;22677;-92
2023/11/01 01:49:10;;;;;;;0.00;0.00;;;;;;;12.20;59.84;99340.94;5308708;26;20157;-91
2023/11/01 01:51:36;;;;;;;0.00;0.00;;;;;;;12.25;59.85;99343.34;5290640;26;20101;-91
2023/11/01 01:54:01;;;;;;;0.00;0.00;;;;;;;12.20;59.84;99350.53;5308792;26;20068;-92
2023/11/01 01:56:27;;;;;;;2.92;1.35;;;;;;;11.98;59.83;99353.25;5309484;26;20116;-90
2023/11/01 01:58:52;;;;;;;0.00;0.00;;;;;;;12.20;59.84;99353.97;5316014;26;27790;-91
2023/11/01 02:01:21;;;;;;;0.98;0.88;;;;;;;12.25;59.85;99354.63;5309225;26;20357;-90
2023/11/01 02:03:47;;;;;;;0.08;0.08;;;;;;;12.25;59.85;99349.41;5290833;26;20058;-91
2023/11/01 02:06:12;;;;;;;0.00;0.00;;;;;;;12.20;59.84;99353.13;5308966;26;20076;-91
2023/11/01 02:08:38;;;;;;;0.15;0.15;;;;;;;12.18;59.85;99352.34;5308714;26;22064;-91
2023/11/01 02:11:03;;;;;;;0.00;0.00;;;;;;;12.14;59.84;99367.31;5309199;26;20060;-91
2023/11/01 02:13:29;;;;;;;0.03;0.03;;;;;;;11.87;59.83;99365.91;5309015;26;20402;-91
2023/11/01 02:15:54;;;;;;;0.00;0.00;;;;;;;12.06;59.84;99366.78;5308193;26;25659;-91
2023/11/01 02:18:20;;;;;;;0.32;0.32;;;;;;;11.81;59.82;99371.38;5309291;26;20064;-91
2023/11/01 02:20:46;;;;;;;0.00;0.00;;;;;;;12.04;59.84;99370.38;5308936;26;20413;-91
2023/11/01 02:23:12;;;;;;;0.00;0.00;;;;;;;12.14;59.85;99376.91;5291199;26;20064;-91
2023/11/01 02:25:37;;;;;;;0.00;0.00;;;;;;;12.04;59.84;99372.97;5308550;26;20072;-92
2023/11/01 02:28:12;;;;;;;0.00;0.00;;;;;;;12.03;59.84;99382.56;5290243;26;20307;-91
2023/11/01 02:30:39;;;;;;;0.00;0.00;;;;;;;11.91;59.84;99375.28;5309281;26;20052;-93
2023/11/01 02:33:07;;;;;;;0.00;0.00;;;;;;;11.80;59.83;99390.53;5308936;26;20416;-93
2023/11/01 02:35:33;;;;;;;0.15;0.15;;;;;;;11.85;59.83;99389.47;5309120;26;20079;-92
2023/11/01 02:37:59;;;;;;;0.20;0.20;;;;;;;11.95;59.83;99393.34;5309121;26;20072;-93
2023/11/01 02:40:24;;;;;;;1.55;0.35;;;;;;;11.93;59.83;99389.97;5308507;26;26216;-92
2023/11/01 02:42:58;;;;;;;0.00;0.00;;;;;;;11.69;59.82;99393.59;5308546;26;23514;-91
2023/11/01 02:45:24;;;;;;;0.10;0.05;;;;;;;11.78;59.83;99390.59;5308378;26;29081;-91
2023/11/01 02:47:49;;;;;;;0.00;0.00;;;;;;;11.83;59.83;99398.22;5308265;26;27475;-92
2023/11/01 02:50:16;;;;;;;0.17;0.10;;;;;;;11.72;59.82;99401.28;5309007;26;20421;-92
2023/11/01 02:52:41;;;;;;;0.00;0.00;;;;;;;11.70;59.82;99405.72;5291140;26;20045;-92
2023/11/01 02:55:09;;;;;;;0.00;0.00;;;;;;;11.68;59.82;99411.00;5308846;26;20076;-90
2023/11/01 02:57:34;;;;;;;0.20;0.20;;;;;;;11.72;59.82;99409.09;5291004;26;20126;-91
2023/11/01 03:00:00;;;;;;;0.52;0.20;;;;;;;11.66;59.82;99419.78;5308893;26;20110;-90
2023/11/01 03:02:26;;;;;;;0.00;0.00;;;;;;;11.79;59.83;99422.75;5308698;26;20082;-90
2023/11/01 03:04:51;;;;;;;0.10;0.10;;;;;;;11.70;59.82;99423.97;5308897;26;20107;-90
2023/11/01 03:07:16;;;;;;;0.10;0.10;;;;;;;11.82;59.82;99422.59;5308349;26;23853;-90
2023/11/01 03:09:42;;;;;;;0.00;0.00;;;;;;;11.73;59.82;99434.25;5308855;26;20111;-91
2023/11/01 03:12:08;;;;;;;0.00;0.00;;;;;;;11.83;59.83;99425.19;5290650;26;20095;-91
2023/11/01 03:14:33;;;;;;;0.00;0.00;;;;;;;11.81;59.82;99426.12;5308810;26;20105;-91
2023/11/01 03:16:59;;;;;;;0.00;0.00;;;;;;;11.73;59.82;99431.66;5327359;26;20066;-92
2023/11/01 03:19:24;;;;;;;0.00;0.00;;;;;;;11.77;59.83;99430.59;5308200;26;25662;-91
2023/11/01 03:21:49;;;;;;;0.30;0.30;;;;;;;11.49;59.81;99440.47;5308152;26;20553;-92
2023/11/01 03:24:15;;;;;;;0.05;0.03;;;;;;;11.50;59.81;99439.56;5308601;26;20060;-92
2023/11/01 03:26:40;;;;;;;1.35;1.17;;;;;;;11.37;59.80;99441.84;5299825;27;30998;-91
2023/11/01 03:29:06;;;;;;;0.00;0.00;;;;;;;11.48;59.81;99449.22;5302268;27;20127;-92
2023/11/01 03:31:32;;;;;;;2.28;0.85;;;;;;;11.43;59.80;99441.59;5285334;27;20088;-92
2023/11/01 03:33:57;;;;;;;0.00;0.00;;;;;;;11.51;59.81;99449.09;5283710;27;29684;-94
2023/11/01 03:36:22;;;;;;;1.20;0.88;;;;;;;11.55;59.81;99451.50;5282750;27;20049;-93
2023/11/01 03:38:48;;;;;;;0.20;0.20;;;;;;;11.55;59.81;99451.50;5301679;27;20101;-93
2023/11/01 03:41:13;;;;;;;0.00;0.00;;;;;;;11.37;59.81;99450.50;5282914;27;20059;-93
2023/11/01 03:43:39;;;;;;;0.32;0.32;;;;;;;11.13;59.79;99458.44;5300944;27;23040;-94
2023/11/01 03:46:05;;;;;;;0.00;0.00;;;;;;;11.22;59.79;99458.06;5301128;27;20101;-94
2023/11/01 03:48:30;;;;;;;0.00;0.00;;;;;;;11.32;59.80;99455.03;5283230;27;20095;-94
2023/11/01 03:50:56;;;;;;;0.00;0.00;;;;;;;10.99;59.79;99466.78;5301232;27;20100;-94
2023/11/01 03:53:21;;;;;;;0.00;0.00;;;;;;;10.96;59.78;99472.94;5301475;27;20109;-95
2023/11/01 03:55:46;;;;;;;0.47;0.47;;;;;;;10.99;59.79;99474.59;5283188;27;20100;-94
2023/11/01 03:58:12;;;;;;;0.00;0.00;;;;;;;11.07;59.79;99469.91;5282570;27;27360;-94
2023/11/01 04:00:37;;;;;;;0.00;0.00;;;;;;;11.08;59.79;99474.22;5300638;27;30977;-93
2023/11/01 04:03:02;;;;;;;0.00;0.00;;;;;;;10.96;59.78;99469.50;5301156;27;20121;-93
2023/11/01 04:05:28;;;;;;;0.00;0.00;;;;;;;10.98;59.78;99470.28;5301125;27;20112;-94
2023/11/01 04:07:53;;;;;;;0.00;0.00;;;;;;;10.76;59.77;99478.03;5301319;27;20065;-94
2023/11/01 04:10:19;;;;;;;0.00;0.00;;;;;;;10.62;59.76;99481.13;5301246;27;20065;-94
2023/11/01 04:12:44;;;;;;;0.05;0.05;;;;;;;10.56;59.76;99483.97;5301451;27;20075;-94
2023/11/01 04:15:13;;;;;;;0.00;0.00;;;;;;;10.54;59.75;99484.94;5301077;27;20449;-95
2023/11/01 04:17:39;;;;;;;0.05;0.05;;;;;;;10.52;59.76;99491.94;5301956;27;20131;-91
2023/11/01 04:20:08;;;;;;;0.00;0.00;;;;;;;10.60;59.76;99495.12;5301382;27;20049;-93
2023/11/01 04:22:35;;;;;;;0.10;0.10;;;;;;;10.57;59.76;99495.22;5301628;27;20025;-92
2023/11/01 04:25:00;;;;;;;0.00;0.00;;;;;;;10.63;59.77;99490.66;5301360;27;20081;-92
2023/11/01 04:27:26;;;;;;;0.00;0.00;;;;;;;10.72;59.77;99492.09;5312251;26;20071;-92
2023/11/01 04:29:54;;;;;;;0.65;0.65;;;;;;;10.77;59.78;99490.16;5286766;27;20126;-93
2023/11/01 04:32:21;;;;;;;0.00;0.00;;;;;;;10.83;59.77;99489.06;5287415;27;20124;-93
2023/11/01 04:34:49;;;;;;;0.00;0.00;;;;;;;10.57;59.76;99488.28;5287057;27;20060;-92
2023/11/01 04:37:16;;;;;;;0.00;0.00;;;;;;;10.45;59.75;99491.34;5287550;27;20056;-91
2023/11/01 04:39:46;;;;;;;0.00;0.00;;;;;;;10.47;59.76;99492.13;5286906;27;20056;-93
2023/11/01 04:42:18;;;;;;;0.00;0.00;;;;;;;10.44;59.75;99482.69;5287373;27;20077;-92
2023/11/01 04:44:44;;;;;;;0.45;0.45;;;;;;;10.54;59.75;99482.34;5287616;27;20065;-93
2023/11/01 04:47:09;;;;;;;0.32;0.32;;;;;;;10.60;59.76;99487.31;5286958;27;20119;-92
2023/11/01 04:49:35;;;;;;;0.35;0.32;;;;;;;10.50;59.76;99492.00;5286644;27;20053;-93
2023/11/01 04:52:01;;;;;;;0.00;0.00;;;;;;;10.51;59.76;99498.06;5286520;27;20076;-92
2023/11/01 04:54:26;;;;;;;0.00;0.00;;;;;;;10.47;59.75;99491.28;5286512;27;20123;-92
2023/11/01 04:56:51;;;;;;;0.00;0.00;;;;;;;10.58;59.76;99502.97;5286386;27;24708;-92
2023/11/01 04:59:17;;;;;;;0.00;0.00;;;;;;;10.62;59.76;99496.75;5314705;27;20076;-92
2023/11/01 05:01:43;;;;;;;0.00;0.00;;;;;;;10.57;59.76;99488.28;5291117;27;20037;-91
2023/11/01 05:04:09;;;;;;;0.00;0.00;;;;;;;10.53;59.75;99494.50;5286842;27;20073;-90
2023/11/01 05:06:34;;;;;;;0.00;0.00;;;;;;;10.40;59.75;99486.25;5287460;27;20049;-94
2023/11/01 05:09:00;;;;;;;0.00;0.00;;;;;;;10.44;59.75;99495.69;5287525;27;20065;-92
2023/11/01 05:11:25;;;;;;;0.05;0.05;;;;;;;10.29;59.74;99487.56;5287162;27;20061;-91
2023/11/01 05:13:50;;;;;;;0.00;0.00;;;;;;;10.09;59.73;99496.00;5286256;27;31798;-93
2023/11/01 05:16:16;;;;;;;0.00;0.00;;;;;;;10.19;59.74;99491.37;5286683;27;23184;-93
2023/11/01 05:18:41;;;;;;;0.00;0.00;;;;;;;10.27;59.75;99498.03;5287499;27;20146;-92
2023/11/01 05:21:07;;;;;;;0.22;0.22;;;;;;;10.68;59.76;99498.31;5286956;27;20121;-91
2023/11/01 05:23:32;;;;;;;0.00;0.00;;;;;;;9.96;59.73;99498.19;5286794;27;20108;-88
2023/11/01 05:25:57;;;;;;;0.00;0.00;;;;;;;9.92;59.73;99503.53;5286724;27;20068;-91
2023/11/01 05:28:23;;;;;;;0.22;0.22;;;;;;;10.00;59.73;99509.34;5286363;27;23509;-90
2023/11/01 05:30:48;;;;;;;0.00;0.00;;;;;;;9.98;59.73;99514.59;5287118;27;20080;-93
2023/11/01 05:33:14;;;;;;;0.00;0.00;;;;;;;9.80;59.73;99521.25;5286982;27;20108;-91
2023/11/01 05:35:41;;;;;;;0.00;0.00;;;;;;;9.87;59.73;99524.47;5305300;27;20070;-92
2023/11/01 05:38:06;;;;;;;0.00;0.00;;;;;;;9.86;59.72;99538.38;5278836;27;20056;-93
2023/11/01 05:40:32;;;;;;;0.00;0.00;;;;;;;9.92;59.72;99539.91;5287365;27;20065;-92
2023/11/01 05:42:58;;;;;;;0.00;0.00;;;;;;;9.87;59.73;99547.88;5286745;27;25952;-92
2023/11/01 05:45:23;;;;;;;0.10;0.10;;;;;;;9.84;59.72;99548.81;5287511;27;20067;-93
2023/11/01 05:47:52;;;;;;;0.00;0.00;;;;;;;9.94;59.73;99549.41;5287096;27;20402;-92
2023/11/01 05:50:24;;;;;;;0.10;0.10;;;;;;;9.98;59.73;99556.19;5287544;27;20056;-92
2023/11/01 05:52:50;;;;;;;0.00;0.00;;;;;;;9.78;59.71;99555.97;5287980;27;20061;-91
2023/11/01 05:55:16;;;;;;;0.00;0.00;;;;;;;9.88;59.73;99551.31;5305723;26;20119;-92
2023/11/01 05:57:41;;;;;;;0.00;0.00;;;;;;;10.05;59.73;99556.84;5287235;27;20067;-90
2023/11/01 06:00:09;;;;;;;0.00;0.00;;;;;;;10.19;59.74;99559.00;5286965;27;20068;-91
2023/11/01 06:02:37;;;;;;;0.85;0.25;;;;;;;10.38;59.75;99566.13;5305660;26;20091;-92
2023/11/01 06:05:03;;;;;;;0.00;0.00;;;;;;;10.47;59.76;99564.97;5287018;27;20053;-92
2023/11/01 06:07:30;;;;;;;0.00;0.00;;;;;;;10.47;59.76;99572.78;5304606;26;20074;-91
2023/11/01 06:09:56;;;;;;;0.00;0.00;;;;;;;10.60;59.76;99574.06;5305184;27;20056;-92
2023/11/01 06:12:21;;;;;;;0.00;0.00;;;;;;;10.85;59.77;99581.00;5285872;27;26982;-92
2023/11/01 06:14:47;;;;;;;3.03;0.37;;;;;;;11.01;59.79;99580.41;5304806;27;20083;-91
2023/11/01 06:17:12;;;;;;;0.00;0.00;;;;;;;11.23;59.80;99577.84;5286732;27;20064;-93
2023/11/01 06:19:38;;;;;;;0.95;0.32;;;;;;;11.27;59.80;99575.97;5286685;27;20406;-92
2023/11/01 06:22:04;;;;;;;0.00;0.00;;;;;;;11.40;59.81;99578.97;5286906;27;20089;-91
2023/11/01 06:24:31;;;;;;;0.00;0.00;;;;;;;11.51;59.81;99567.22;5287082;27;20083;-91
2023/11/01 06:26:57;;;;;;;0.10;0.10;;;;;;;11.67;59.82;99580.53;5304850;27;20049;-92
2023/11/01 06:29:22;;;;;;;0.00;0.00;;;;;;;11.81;59.83;99575.63;5287920;27;20080;-92
2023/11/01 06:31:47;;;;;;;0.00;0.00;;;;;;;11.76;59.83;99582.75;5287454;27;20064;-92
2023/11/01 06:34:13;;;;;;;0.00;0.00;;;;;;;11.83;59.83;99579.06;5285911;27;20100;-91
2023/11/01 06:36:38;;;;;;;0.00;0.00;;;;;;;11.99;59.84;99571.44;5286932;27;20069;-92
2023/11/01 06:39:04;;;;;;;1.25;0.57;;;;;;;11.98;59.84;99570.59;5286704;27;20095;-92
2023/11/01 06:41:30;;;;;;;0.28;0.28;;;;;;;12.06;59.84;99570.25;5286917;27;20080;-92
2023/11/01 06:43:55;;;;;;;0.30;0.30;;;;;;;12.22;59.85;99567.88;5286806;27;20844;-93
2023/11/01 06:46:22;;;;;;;0.62;0.62;;;;;;;12.39;59.86;99560.22;5286076;27;25848;-92
2023/11/01 06:48:47;;;;;;;0.00;0.00;;;;;;;12.35;59.85;99556.03;5287460;27;20433;-92
2023/11/01 06:51:14;;;;;;;0.00;0.00;;;;;;;12.39;59.86;99546.31;5286761;27;20072;-92
2023/11/01 06:53:39;;;;;;;0.00;0.00;;;;;;;12.38;59.86;99545.47;5305343;27;20119;-93
2023/11/01 06:56:05;;;;;;;0.00;0.00;;;;;;;12.37;59.87;99542.91;5286827;27;20398;-93
2023/11/01 06:58:31;;;;;;;0.00;0.00;;;;;;;12.44;59.86;99542.56;5286106;27;20057;-91
2023/11/01 07:00:56;;;;;;;0.00;0.00;;;;;;;12.71;59.88;99543.13;5286166;27;23689;-92
2023/11/01 07:03:21;;;;;;;0.00;0.00;;;;;;;12.78;59.88;99538.53;5286763;27;20096;-92
2023/11/01 07:05:48;;;;;;;0.00;0.00;;;;;;;12.82;59.89;99543.53;5286691;27;20295;-92
2023/11/01 07:08:13;;;;;;;0.00;0.00;;;;;;;12.81;59.88;99536.63;5287029;27;20061;-91
2023/11/01 07:10:40;;;;;;;0.00;0.00;;;;;;;12.97;59.89;99539.38;5286850;27;20067;-93
2023/11/01 07:13:06;;;;;;;0.00;0.00;;;;;;;13.00;59.89;99543.59;5287209;27;20056;-93
2023/11/01 07:15:32;;;;;;;0.08;0.08;;;;;;;13.29;59.91;99543.19;5287303;27;20329;-92
2023/11/01 07:17:58;;;;;;;0.00;0.00;;;;;;;13.23;59.90;99548.66;5305183;27;20053;-92
2023/11/01 07:20:23;;;;;;;0.00;0.00;;;;;;;13.11;59.89;99546.59;5286865;27;20080;-92
2023/11/01 07:22:48;;;;;;;0.00;0.00;;;;;;;13.10;59.90;99550.13;5286471;27;20360;-94
2023/11/01 07:25:14;;;;;;;0.00;0.00;;;;;;;13.24;59.90;99552.13;5286430;27;27044;-91
2023/11/01 07:27:39;;;;;;;0.00;0.00;;;;;;;13.46;59.92;99547.59;5299353;26;20166;-92
2023/11/01 07:30:05;;;;;;;0.00;0.00;;;;;;;13.54;59.92;99548.09;5308095;26;20056;-92
2023/11/01 07:32:31;;;;;;;0.00;0.00;;;;;;;13.75;59.93;99541.84;5290504;26;20055;-92
2023/11/01 07:34:57;;;;;;;0.15;0.15;;;;;;;13.54;59.92;99550.72;5309296;26;20045;-93
2023/11/01 07:37:24;;;;;;;0.20;0.20;;;;;;;13.49;59.92;99560.56;5308925;26;20126;-93
2023/11/01 07:39:49;;;;;;;0.00;0.00;;;;;;;13.65;59.92;99543.19;5309376;26;20060;-91
2023/11/01 07:42:15;;;;;;;0.00;0.00;;;;;;;13.68;59.93;99545.66;5309039;26;20113;-93
2023/11/01 07:44:40;;;;;;;0.00;0.00;;;;;;;14.09;59.96;99551.50;5309378;26;20053;-95
2023/11/01 07:47:07;;;;;;;0.10;0.10;;;;;;;13.93;59.94;99547.09;5309195;26;20102;-93
2023/11/01 07:49:32;;;;;;;0.37;0.37;;;;;;;14.03;59.95;99561.44;5308551;26;23400;-93
2023/11/01 07:51:58;;;;;;;1.05;0.22;;;;;;;14.10;59.96;99552.34;5308430;26;20055;-94
2023/11/01 07:54:24;;;;;;;0.00;0.00;;;;;;;14.36;59.96;99554.50;5308792;26;20060;-94
2023/11/01 07:56:49;;;;;;;0.70;0.45;;;;;;;14.36;59.96;99562.38;5308904;26;20056;-93
2023/11/01 07:59:15;;;;;;;0.10;0.10;;;;;;;14.50;59.97;99559.09;5308887;26;20048;-93
2023/11/01 08:01:41;;;;;;;0.00;0.00;;;;;;;14.66;59.98;99559.97;5310655;26;20087;-93
2023/11/01 08:04:07;;;;;;;0.00;0.00;;;;;;;14.68;59.98;99552.06;5312342;26;20067;-94
2023/11/01 08:06:33;;;;;;;0.00;0.00;;;;;;;14.76;59.98;99542.03;5308844;26;20060;-94
2023/11/01 08:08:58;;;;;;;0.00;0.00;;;;;;;14.79;59.98;99535.78;5327277;26;20056;-94
2023/11/01 08:11:24;;;;;;;0.00;0.00;;;;;;;14.83;59.98;99539.91;5308610;26;20060;-94
2023/11/01 08:13:49;;;;;;;0.00;0.00;;;;;;;14.83;59.99;99550.41;5308611;26;20048;-93
2023/11/01 08:16:15;;;;;;;0.22;0.22;;;;;;;14.92;59.99;99549.94;5308748;26;20101;-92
2023/11/01 08:18:40;;;;;;;0.00;0.00;;;;;;;14.80;59.99;99554.03;5308638;26;20214;-95
2023/11/01 08:21:06;;;;;;;0.00;0.00;;;;;;;14.87;60.00;99567.66;5308628;26;20324;-93
2023/11/01 08:23:31;;;;;;;0.15;0.10;;;;;;;15.03;60.01;99561.53;5308494;26;20620;-93
2023/11/01 08:25:57;;;;;;;0.00;0.00;;;;;;;15.10;60.00;99569.06;5308256;26;20060;-93
2023/11/01 08:28:22;;;;;;;0.85;0.43;;;;;;;15.20;60.01;99554.53;5308298;26;20121;-92
2023/11/01 08:30:48;;;;;;;0.05;0.05;;;;;;;15.24;60.01;99554.28;5308439;26;20380;-94
2023/11/01 08:33:13;;;;;;;0.00;0.00;;;;;;;15.60;60.03;99556.69;5308179;26;20090;-93
2023/11/01 08:35:39;;;;;;;1.00;0.65;;;;;;;15.52;60.03;99564.13;5308176;26;20057;-93
2023/11/01 08:38:08;;;;;;;0.70;0.30;;;;;;;15.59;60.03;99565.50;5308466;26;20084;-94
2023/11/01 08:40:34;;;;;;;0.00;0.00;;;;;;;15.71;60.04;99557.88;5308953;26;20118;-93
2023/11/01 08:42:59;;;;;;;0.00;0.00;;;;;;;15.87;60.05;99554.31;5326765;26;20058;-94
2023/11/01 08:45:25;;;;;;;0.00;0.00;;;;;;;15.73;60.04;99559.50;5308024;26;20076;-93
2023/11/01 08:47:50;;;;;;;0.10;0.10;;;;;;;15.89;60.05;99557.69;5308155;26;20087;-94
2023/11/01 08:50:15;;;;;;;0.00;0.00;;;;;;;15.91;60.04;99558.44;5308121;26;20383;-94
2023/11/01 08:52:42;;;;;;;0.00;0.00;;;;;;;16.08;60.05;99554.00;5308412;26;20044;-94
2023/11/01 08:55:14;;;;;;;0.00;0.00;;;;;;;16.12;60.06;99561.63;5290361;26;20131;-94
2023/11/01 08:57:40;;;;;;;0.00;0.00;;;;;;;16.34;60.08;99553.34;5310354;26;20645;-94
2023/11/01 09:00:06;;;;;;;0.00;0.00;;;;;;;16.44;60.08;99546.59;5290338;26;20056;-93
2023/11/01 09:02:32;;;;;;;0.13;0.13;;;;;;;16.43;60.08;99558.06;5289974;26;20460;-94
2023/11/01 09:04:57;;;;;;;0.00;0.00;;;;;;;16.42;60.07;99558.16;5290096;26;20053;-95
2023/11/01 09:07:23;;;;;;;0.00;0.00;;;;;;;16.41;60.08;99556.47;5308074;26;20074;-94
2023/11/01 09:09:52;;;;;;;0.00;0.00;;;;;;;16.56;60.08;99556.41;5308352;26;20063;-94
2023/11/01 09:12:18;;;;;;;1.12;0.22;;;;;;;16.61;60.08;99565.78;5290353;26;20063;-94
2023/11/01 09:14:43;;;;;;;0.00;0.00;;;;;;;16.76;60.09;99560.47;5308117;26;20064;-94
2023/11/01 09:17:09;;;;;;;0.00;0.00;;;;;;;16.59;60.08;99568.50;5308181;26;20432;-93
2023/11/01 09:19:34;;;;;;;0.00;0.00;;;;;;;16.83;60.10;99577.59;5308068;26;20056;-91
2023/11/01 09:22:00;;;;;;;0.00;0.00;;;;;;;16.98;60.10;99580.22;5308237;26;20362;-91
2023/11/01 09:24:25;;;;;;;0.03;0.03;;;;;;;17.12;60.11;99582.84;5307736;26;20076;-92
2023/11/01 09:26:51;;;;;;;0.00;0.00;;;;;;;17.18;60.11;99587.72;5307335;26;20061;-93
2023/11/01 09:29:17;;;;;;;0.00;0.00;;;;;;;17.36;60.13;99588.38;5308805;26;20080;-92
2023/11/01 09:31:42;;;;;;;0.00;0.00;;;;;;;17.50;60.13;99586.56;5302045;26;20093;-94
2023/11/01 09:34:08;;;;;;;0.00;0.00;;;;;;;17.43;60.12;99595.78;5315382;26;20076;-94
2023/11/01 09:36:38;;;;;;;0.25;0.25;;;;;;;17.50;60.13;99593.59;5307424;26;20081;-93
2023/11/01 09:39:04;;;;;;;;;;;;;;;17.64;60.14;99590.09;5289274;26;20053;-92
2023/11/01 09:41:34;;;;;;;0.00;0.00;;;;;;;17.72;60.15;99591.34;5307314;26;19963;-93
2023/11/01 09:44:03;;;;;;;;;;;;;;;17.74;60.14;99600.00;5289566;26;20068;-93
2023/11/01 09:46:29;;;;;;;0.00;0.00;;;;;;;17.74;60.14;99599.13;5326767;26;19981;-93
2023/11/01 09:48:55;;;;;;;0.20;0.20;;;;;;;17.86;60.15;99602.78;5308486;26;20060;-94
2023/11/01 09:51:24;;;;;;;0.00;0.00;;;;;;;17.93;60.16;99597.00;5308205;26;20078;-94
2023/11/01 09:53:49;;;;;;;0.03;0.03;;;;;;;18.08;60.15;99598.66;5290586;26;20114;-92
2023/11/01 09:56:15;;;;;;;0.00;0.00;;;;;;;18.29;60.17;99600.84;5308280;26;20071;-93
2023/11/01 09:58:43;;;;;;;0.00;0.00;;;;;;;18.24;60.18;99603.78;5308750;26;20324;-93
2023/11/01 10:01:09;;;;;;;0.00;0.00;;;;;;;18.33;60.18;99602.31;5290567;26;20059;-92
2023/11/01 10:03:38;;;;;;;0.00;0.00;;;;;;;18.40;60.18;99607.06;5308394;26;20076;-92
2023/11/01 10:06:04;;;;;;;0.00;0.00;;;;;;;18.49;60.19;99600.38;5308304;26;20068;-93
2023/11/01 10:08:30;;;;;;;0.00;0.00;;;;;;;18.68;60.19;99594.69;5308746;26;20074;-93
2023/11/01 10:11:02;;;;;;;0.00;0.00;;;;;;;18.76;60.20;99592.41;5308665;26;20389;-94
2023/11/01 10:13:30;;;;;;;0.10;0.10;;;;;;;18.98;60.21;99591.78;5308615;26;20052;-94
2023/11/01 10:15:56;;;;;;;0.00;0.00;;;;;;;18.94;60.21;99595.59;5307279;26;25122;-94
2023/11/01 10:18:21;;;;;;;0.00;0.00;;;;;;;19.17;60.23;99589.56;5309106;26;20106;-95
2023/11/01 10:20:49;;;;;;;0.00;0.00;;;;;;;19.41;60.24;99591.44;5307970;26;20047;-95
2023/11/01 10:23:17;;;;;;;0.47;0.47;;;;;;;19.49;60.24;99578.50;5307425;26;20181;-96
2023/11/01 10:25:46;;;;;;;0.00;0.00;;;;;;;19.62;60.25;99582.81;5289839;26;20134;-94
2023/11/01 10:28:12;;;;;;;0.00;0.00;;;;;;;19.63;60.25;99578.38;5308480;26;20067;-94
2023/11/01 10:30:38;;;;;;;0.00;0.00;;;;;;;19.66;60.25;99577.34;5308159;26;20051;-94
2023/11/01 10:33:04;;;;;;;0.00;0.00;;;;;;;19.74;60.25;99573.19;5308302;26;20110;-93
2023/11/01 10:35:31;;;;;;;0.10;0.10;;;;;;;19.85;60.26;99560.03;5306823;26;20082;-94
2023/11/01 10:37:58;;;;;;;0.00;0.00;;;;;;;19.77;60.25;99567.69;5308916;26;20064;-96
2023/11/01 10:40:24;;;;;;;0.20;0.20;;;;;;;19.95;60.26;99568.13;5290904;26;20043;-95
2023/11/01 10:42:51;;;;;;;0.10;0.10;;;;;;;20.00;60.26;99558.06;5308254;26;20065;-93
2023/11/01 10:45:16;;;;;;;0.00;0.00;;;;;;;20.08;60.26;99546.91;5308467;26;20076;-94
2023/11/01 10:47:42;;;;;;;0.10;0.10;;;;;;;19.97;60.26;99547.72;5308184;26;20109;-92
2023/11/01 10:50:07;;;;;;;0.00;0.00;;;;;;;19.85;60.26;99549.47;5308281;26;20100;-92
2023/11/01 10:52:33;;;;;;;0.10;0.10;;;;;;;20.03;60.27;99539.34;5307406;26;20057;-94
2023/11/01 10:54:58;;;;;;;0.00;0.00;;;;;;;20.12;60.27;99545.75;5307633;26;20071;-93
2023/11/01 10:57:23;;;;;;;0.00;0.00;;;;;;;20.05;60.27;99536.59;5307295;26;20117;-92
2023/11/01 10:59:58;;;;;;;0.00;0.00;;;;;;;20.22;60.27;99530.88;5307342;26;20123;-92
2023/11/01 11:02:26;;;;;;;0.00;0.00;;;;;;;20.28;60.28;99524.28;5307809;26;20123;-91
2023/11/01 11:04:53;;;;;;;0.00;0.00;;;;;;;20.27;60.28;99527.87;5299618;26;20030;-91
2023/11/01 11:07:22;;;;;;;0.00;0.00;;;;;;;20.28;60.28;99516.38;5311646;26;20049;-93
2023/11/01 11:09:48;;;;;;;0.15;0.08;;;;;;;20.36;60.29;99520.13;5291410;26;20058;-93
2023/11/01 11:12:14;;;;;;;0.20;0.20;;;;;;;20.23;60.29;99522.00;5308029;26;20064;-90
2023/11/01 11:14:41;;;;;;;1.87;0.65;;;;;;;20.39;60.28;99519.88;5307878;26;20064;-92
2023/11/01 11:17:07;;;;;;;0.00;0.00;;;;;;;20.39;60.28;99519.88;5289834;26;20131;-93
2023/11/01 11:20:11;;;;;;;0.00;0.00;;;;;;;20.36;60.29;99514.84;5290178;26;20057;-93
2023/11/01 11:23:01;;;;;;;0.00;0.00;;;;;;;20.19;60.28;99512.63;5307747;26;20060;-93
2023/11/01 11:25:45;;;;;;;0.00;0.00;;;;;;;20.35;60.29;99510.50;5326009;26;20060;-95
2023/11/01 11:28:22;;;;;;;0.20;0.20;;;;;;;20.46;60.29;99504.44;5326378;26;20483;-95
2023/11/01 11:31:03;;;;;;;0.00;0.00;;;;;;;20.40;60.29;99502.22;5326897;26;20405;-93